Time;durP1;ratioP1;P1;durP2;ratioP2;P2;SDS_P1;SDS_P2;PMS_P1;PMS_P2;Temp;Humidity;BMP_temperature;BMP_pressure;BME280_temperature;BME280_humidity;BME280_pressure;Samples;Min_cycle;Max_cycle;Signal;HPM_P1;HPM_P2
2023/03/24 00:02:02;;;;;;;12.10;11.70;;;14.80;99.90;;;;;;4892509;29;20522;-79
2023/03/24 00:04:30;;;;;;;12.17;11.70;;;14.80;99.90;;;;;;4887816;29;20511;-78
2023/03/24 00:07:02;;;;;;;12.10;11.70;;;14.80;99.90;;;;;;4888313;29;21329;-79
2023/03/24 00:09:31;;;;;;;12.00;11.50;;;14.80;99.90;;;;;;4887791;29;20557;-77
2023/03/24 00:11:59;;;;;;;12.37;11.87;;;14.80;99.90;;;;;;4885404;29;20469;-77
2023/03/24 00:14:29;;;;;;;11.63;11.23;;;14.80;99.90;;;;;;4890044;29;21116;-76
2023/03/24 00:16:58;;;;;;;12.30;11.87;;;14.80;99.90;;;;;;4888050;29;20499;-79
2023/03/24 00:19:26;;;;;;;12.50;12.00;;;14.80;99.90;;;;;;4889649;29;20469;-77
2023/03/24 00:21:55;;;;;;;12.07;11.67;;;14.80;99.90;;;;;;4888277;29;20480;-76
2023/03/24 00:24:25;;;;;;;12.00;11.60;;;14.80;99.90;;;;;;4893516;29;20493;-80
2023/03/24 00:26:56;;;;;;;11.97;11.37;;;14.80;99.90;;;;;;4895945;29;20469;-78
2023/03/24 00:29:25;;;;;;;11.70;11.30;;;14.70;99.90;;;;;;4893156;29;20454;-79
2023/03/24 00:31:54;;;;;;;11.70;11.40;;;14.70;99.90;;;;;;4894003;29;20462;-79
2023/03/24 00:34:22;;;;;;;11.07;10.70;;;14.70;99.90;;;;;;4894427;29;20461;-79
2023/03/24 00:36:51;;;;;;;10.90;10.50;;;14.70;99.90;;;;;;4894060;29;20580;-78
2023/03/24 00:39:20;;;;;;;10.70;10.40;;;14.70;99.90;;;;;;4888476;29;20465;-79
2023/03/24 00:41:49;;;;;;;10.60;10.30;;;14.70;99.90;;;;;;4890317;29;20549;-81
2023/03/24 00:44:18;;;;;;;10.50;10.20;;;14.70;99.90;;;;;;4892465;29;20484;-78
2023/03/24 00:46:54;;;;;;;11.40;10.83;;;14.70;99.90;;;;;;4890060;29;21725;-79
2023/03/24 00:49:40;;;;;;;10.50;10.20;;;14.70;99.90;;;;;;4892109;29;20462;-81
2023/03/24 00:52:10;;;;;;;11.10;10.70;;;14.70;99.90;;;;;;4890780;29;20465;-78
2023/03/24 00:54:38;;;;;;;10.03;9.83;;;14.60;99.90;;;;;;4894343;29;20486;-79
2023/03/24 00:57:11;;;;;;;10.47;10.17;;;14.60;99.90;;;;;;4892792;29;20478;-79
2023/03/24 00:59:47;;;;;;;10.43;10.03;;;14.60;99.90;;;;;;4894321;29;20454;-79
2023/03/24 01:02:18;;;;;;;10.10;9.80;;;14.60;99.90;;;;;;4895110;29;20476;-78
2023/03/24 01:04:46;;;;;;;9.80;9.50;;;14.60;99.90;;;;;;4891586;29;21045;-77
2023/03/24 01:07:16;;;;;;;9.83;9.53;;;14.60;99.90;;;;;;4895637;29;20485;-79
2023/03/24 01:09:50;;;;;;;10.43;10.13;;;14.60;99.90;;;;;;4896439;29;20585;-77
2023/03/24 01:12:20;;;;;;;10.60;10.30;;;14.60;99.90;;;;;;4886085;29;20479;-78
2023/03/24 01:14:49;;;;;;;9.50;9.20;;;14.60;99.90;;;;;;4896372;29;20545;-78
2023/03/24 01:17:18;;;;;;;10.20;9.87;;;14.70;99.90;;;;;;4894086;29;20470;-79
2023/03/24 01:19:46;;;;;;;10.00;9.70;;;14.80;99.90;;;;;;4888162;29;20465;-76
2023/03/24 01:22:15;;;;;;;10.40;10.10;;;14.70;99.90;;;;;;4893461;29;20490;-79
2023/03/24 01:24:43;;;;;;;10.40;10.10;;;14.70;99.90;;;;;;4897792;29;21124;-78
2023/03/24 01:27:12;;;;;;;10.13;9.83;;;14.80;99.90;;;;;;4895758;29;20481;-79
2023/03/24 01:29:42;;;;;;;10.03;9.73;;;14.80;99.90;;;;;;4892683;29;20533;-79
2023/03/24 01:32:10;;;;;;;10.17;9.77;;;14.80;99.90;;;;;;4893424;29;20455;-78
2023/03/24 01:34:38;;;;;;;10.40;9.90;;;14.80;99.90;;;;;;4896593;29;20503;-79
2023/03/24 01:37:06;;;;;;;10.67;10.27;;;14.80;99.90;;;;;;4897482;29;20548;-80
2023/03/24 01:39:35;;;;;;;10.10;9.80;;;14.80;99.90;;;;;;4893976;29;20498;-78
2023/03/24 01:42:03;;;;;;;9.40;9.10;;;14.80;99.90;;;;;;4895476;29;20610;-78
2023/03/24 01:44:33;;;;;;;9.70;9.50;;;14.80;99.90;;;;;;4890205;29;21184;-79
2023/03/24 01:47:07;;;;;;;9.10;8.87;;;14.80;99.90;;;;;;4893755;29;20493;-79
2023/03/24 01:49:39;;;;;;;9.60;9.30;;;14.70;99.90;;;;;;4895493;29;20549;-79
2023/03/24 01:52:11;;;;;;;9.57;9.27;;;14.70;99.90;;;;;;4899012;29;20559;-79
2023/03/24 01:54:42;;;;;;;10.10;9.60;;;14.70;99.90;;;;;;4900334;29;20450;-79
2023/03/24 01:57:16;;;;;;;10.23;9.90;;;14.70;99.90;;;;;;4896136;29;20556;-80
2023/03/24 01:59:48;;;;;;;9.43;9.03;;;14.70;99.90;;;;;;4898715;29;21138;-79
2023/03/24 02:02:20;;;;;;;9.20;9.00;;;14.80;99.90;;;;;;4893841;29;20462;-79
2023/03/24 02:04:53;;;;;;;10.30;9.47;;;14.80;99.90;;;;;;4896595;29;20482;-81
2023/03/24 02:07:31;;;;;;;9.93;9.60;;;14.80;99.90;;;;;;4894397;29;20469;-79
2023/03/24 02:10:00;;;;;;;10.00;9.70;;;14.80;99.90;;;;;;4893552;29;20509;-79
2023/03/24 02:12:31;;;;;;;10.00;9.70;;;14.90;99.90;;;;;;4894743;29;20478;-79
2023/03/24 02:14:59;;;;;;;9.40;9.10;;;14.70;99.90;;;;;;4894252;29;20476;-79
2023/03/24 02:17:48;;;;;;;9.90;9.60;;;14.80;99.90;;;;;;4888764;29;20988;-79
2023/03/24 02:20:56;;;;;;;9.40;9.20;;;14.80;99.90;;;;;;4892533;29;20509;-78
2023/03/24 02:24:13;;;;;;;9.80;9.50;;;14.80;99.90;;;;;;4858944;29;20489;-78
2023/03/24 02:27:05;;;;;;;9.77;9.43;;;14.80;99.90;;;;;;4894350;29;20479;-76
2023/03/24 02:30:06;;;;;;;9.97;9.50;;;14.80;99.90;;;;;;4889429;29;21151;-79
2023/03/24 02:33:07;;;;;;;10.43;10.03;;;14.80;99.90;;;;;;4887907;29;20474;-79
2023/03/24 02:36:06;;;;;;;9.87;9.57;;;14.80;99.90;;;;;;4894204;29;20555;-80
2023/03/24 02:39:02;;;;;;;10.20;9.80;;;14.80;99.90;;;;;;4892299;29;20977;-78
2023/03/24 02:41:34;;;;;;;9.00;8.80;;;14.70;99.90;;;;;;4893822;29;20473;-80
2023/03/24 02:44:09;;;;;;;9.40;9.20;;;14.80;99.90;;;;;;4896392;29;20487;-80
2023/03/24 02:46:44;;;;;;;8.97;8.73;;;14.70;99.90;;;;;;4891817;29;20492;-78
2023/03/24 02:49:22;;;;;;;10.07;9.73;;;14.70;99.90;;;;;;4892601;29;20466;-78
2023/03/24 02:51:57;;;;;;;9.60;9.23;;;14.80;99.90;;;;;;4889432;29;20557;-78
2023/03/24 02:54:33;;;;;;;9.60;9.30;;;14.80;99.90;;;;;;4898438;29;21068;-78
2023/03/24 02:57:08;;;;;;;9.57;9.17;;;14.70;99.90;;;;;;4896073;29;20574;-78
2023/03/24 02:59:41;;;;;;;9.30;9.10;;;14.70;99.90;;;;;;4897625;29;21068;-78
2023/03/24 03:02:14;;;;;;;9.40;9.20;;;14.70;99.90;;;;;;4899503;29;21216;-79
2023/03/24 03:04:48;;;;;;;8.93;8.73;;;14.60;99.90;;;;;;4893375;29;20528;-78
2023/03/24 03:07:21;;;;;;;9.67;9.27;;;14.70;99.90;;;;;;4893754;29;21172;-76
2023/03/24 03:09:55;;;;;;;8.60;8.30;;;14.70;99.90;;;;;;4893845;29;20528;-79
2023/03/24 03:12:27;;;;;;;8.50;8.30;;;14.70;99.90;;;;;;4894183;29;20490;-77
2023/03/24 03:15:01;;;;;;;8.63;8.40;;;14.80;99.90;;;;;;4894615;29;20460;-78
2023/03/24 03:17:33;;;;;;;9.17;8.67;;;14.80;99.90;;;;;;4893524;29;20462;-79
2023/03/24 03:20:07;;;;;;;8.97;8.47;;;14.90;99.90;;;;;;4885759;29;20465;-78
2023/03/24 03:22:41;;;;;;;8.53;8.33;;;14.90;99.90;;;;;;4890312;29;20471;-78
2023/03/24 03:25:13;;;;;;;8.37;8.07;;;14.80;99.90;;;;;;4889413;29;20565;-77
2023/03/24 03:27:45;;;;;;;8.40;8.10;;;14.80;99.90;;;;;;4891940;29;20457;-79
2023/03/24 03:30:18;;;;;;;8.57;8.27;;;14.80;99.90;;;;;;4889440;29;20478;-78
2023/03/24 03:32:53;;;;;;;9.10;8.80;;;14.80;99.90;;;;;;4894830;29;20470;-79
2023/03/24 03:35:26;;;;;;;8.27;7.97;;;14.80;99.90;;;;;;4896503;29;20625;-77
2023/03/24 03:38:03;;;;;;;8.60;8.30;;;14.80;99.90;;;;;;4892423;29;21026;-77
2023/03/24 03:40:35;;;;;;;8.23;8.03;;;14.80;99.90;;;;;;4890903;29;20471;-78
2023/03/24 03:43:05;;;;;;;8.57;8.27;;;14.70;99.90;;;;;;4892934;29;20459;-78
2023/03/24 03:45:34;;;;;;;9.30;8.77;;;14.70;99.90;;;;;;4894214;29;20941;-78
2023/03/24 03:48:04;;;;;;;8.60;8.40;;;14.80;99.90;;;;;;4889334;29;21175;-75
2023/03/24 03:50:33;;;;;;;8.13;7.93;;;14.70;99.90;;;;;;4896308;29;20466;-78
2023/03/24 03:53:02;;;;;;;8.50;8.30;;;14.70;99.90;;;;;;4894352;29;20516;-78
2023/03/24 03:55:31;;;;;;;8.10;7.83;;;14.70;99.90;;;;;;4898289;29;20481;-78
2023/03/24 03:57:59;;;;;;;8.43;8.20;;;14.70;99.90;;;;;;4895098;29;20496;-78
2023/03/24 04:00:29;;;;;;;8.43;8.13;;;14.60;99.90;;;;;;4895326;29;20495;-80
2023/03/24 04:03:21;;;;;;;8.30;8.00;;;14.60;99.90;;;;;;4893914;29;20468;-78
2023/03/24 04:05:56;;;;;;;8.73;8.50;;;14.70;99.90;;;;;;4895085;29;20508;-79
2023/03/24 04:08:33;;;;;;;9.20;8.87;;;14.70;99.90;;;;;;4893994;29;20499;-81
2023/03/24 04:11:27;;;;;;;9.70;9.30;;;14.60;99.90;;;;;;4894209;29;20516;-79
2023/03/24 04:14:10;;;;;;;9.37;9.07;;;14.60;99.90;;;;;;4880932;29;20581;-79
2023/03/24 04:16:52;;;;;;;10.60;10.20;;;14.60;99.90;;;;;;4893263;29;20471;-80
2023/03/24 04:19:34;;;;;;;10.40;10.03;;;14.60;99.90;;;;;;4890519;29;21059;-79
2023/03/24 04:22:14;;;;;;;10.00;9.70;;;14.50;99.90;;;;;;4891536;29;20512;-77
2023/03/24 04:24:51;;;;;;;10.47;10.07;;;14.60;99.90;;;;;;4888922;29;21089;-79
2023/03/24 04:27:27;;;;;;;10.17;9.77;;;14.50;99.90;;;;;;4877154;29;20536;-76
2023/03/24 04:30:08;;;;;;;9.70;9.40;;;14.60;99.90;;;;;;4880365;29;21441;-77
2023/03/24 04:32:42;;;;;;;10.23;9.83;;;14.60;99.90;;;;;;4893647;29;20473;-79
2023/03/24 04:35:19;;;;;;;10.57;10.27;;;14.60;99.90;;;;;;4889798;29;20450;-79
2023/03/24 04:37:48;;;;;;;10.30;9.90;;;14.60;99.90;;;;;;4890689;29;20472;-77
2023/03/24 04:40:19;;;;;;;9.60;9.30;;;14.60;99.90;;;;;;4887733;29;20474;-78
2023/03/24 04:42:51;;;;;;;9.63;9.30;;;14.70;99.90;;;;;;4889750;29;20549;-79
2023/03/24 04:45:24;;;;;;;10.23;9.93;;;14.70;99.90;;;;;;4892361;29;20496;-77
2023/03/24 04:47:57;;;;;;;10.10;9.80;;;14.70;99.90;;;;;;4890128;29;20467;-80
2023/03/24 04:50:31;;;;;;;9.47;9.27;;;14.70;99.90;;;;;;4890952;29;20535;-78
2023/03/24 04:52:59;;;;;;;9.50;9.30;;;14.70;99.90;;;;;;4891957;29;20500;-79
2023/03/24 04:55:39;;;;;;;9.50;9.10;;;14.80;99.90;;;;;;4897732;29;20504;-79
2023/03/24 04:58:08;;;;;;;10.70;10.40;;;14.80;99.90;;;;;;4896840;29;20476;-79
2023/03/24 05:00:36;;;;;;;10.03;9.80;;;14.80;99.90;;;;;;4871334;29;20560;-75
2023/03/24 05:03:05;;;;;;;10.50;10.20;;;14.70;99.90;;;;;;4890991;29;20466;-75
2023/03/24 05:05:34;;;;;;;12.40;12.10;;;14.70;99.90;;;;;;4890353;29;20529;-78
2023/03/24 05:08:02;;;;;;;11.67;11.07;;;14.60;99.90;;;;;;4892381;29;20489;-80
2023/03/24 05:10:31;;;;;;;11.30;11.10;;;14.70;99.90;;;;;;4894985;29;20897;-77
2023/03/24 05:12:59;;;;;;;12.17;11.57;;;14.80;99.90;;;;;;4893440;29;20473;-80
2023/03/24 05:15:30;;;;;;;11.03;10.80;;;14.80;99.90;;;;;;4886999;29;20475;-77
2023/03/24 05:17:58;;;;;;;11.60;11.30;;;14.80;99.90;;;;;;4897060;29;20466;-77
2023/03/24 05:20:30;;;;;;;12.33;12.00;;;14.80;99.90;;;;;;4890357;29;20551;-77
2023/03/24 05:22:58;;;;;;;12.47;12.07;;;14.90;99.90;;;;;;4882477;29;20745;-79
2023/03/24 05:25:26;;;;;;;12.00;11.70;;;14.90;99.90;;;;;;4891480;29;20503;-78
2023/03/24 05:27:54;;;;;;;12.60;12.20;;;14.90;1.00;;;;;;4892650;29;21243;-77
2023/03/24 05:30:23;;;;;;;12.87;12.30;;;14.90;1.00;;;;;;4889053;29;20468;-78
2023/03/24 05:32:51;;;;;;;12.50;12.13;;;14.90;1.00;;;;;;4889295;29;20522;-78
2023/03/24 05:35:19;;;;;;;13.30;12.90;;;14.80;1.00;;;;;;4890695;29;20476;-79
2023/03/24 05:37:49;;;;;;;12.77;12.37;;;14.80;1.00;;;;;;4889388;29;20470;-78
2023/03/24 05:40:18;;;;;;;13.43;12.83;;;14.80;1.00;;;;;;4888192;29;21086;-82
2023/03/24 05:42:48;;;;;;;13.13;12.73;;;14.80;1.00;;;;;;4890166;29;20462;-77
2023/03/24 05:45:17;;;;;;;13.50;13.10;;;14.80;13.10;;;;;;4891873;29;20476;-80
2023/03/24 05:47:46;;;;;;;13.33;12.83;;;14.80;99.90;;;;;;4890044;29;20458;-79
2023/03/24 05:50:14;;;;;;;14.20;13.70;;;14.80;99.90;;;;;;4889347;29;20454;-80
2023/03/24 05:52:42;;;;;;;13.60;13.20;;;14.80;99.90;;;;;;4895807;29;20476;-79
2023/03/24 05:55:14;;;;;;;13.33;12.93;;;14.70;99.90;;;;;;4894970;29;21011;-79
2023/03/24 05:57:43;;;;;;;12.83;12.43;;;14.70;99.90;;;;;;4898108;29;20460;-81
2023/03/24 06:00:15;;;;;;;13.87;13.37;;;14.70;1.00;;;;;;4891977;29;20560;-79
2023/03/24 06:02:44;;;;;;;14.63;13.83;;;14.70;1.00;;;;;;4887327;29;20464;-80
2023/03/24 06:05:13;;;;;;;14.50;13.80;;;14.70;1.00;;;;;;4889514;29;20469;-79
2023/03/24 06:07:42;;;;;;;14.43;13.93;;;14.60;36.90;;;;;;4882167;29;20490;-77
2023/03/24 06:10:13;;;;;;;14.53;13.93;;;14.60;99.90;;;;;;4881471;29;20506;-78
2023/03/24 06:12:41;;;;;;;15.00;14.47;;;14.60;99.90;;;;;;4892490;29;20447;-76
2023/03/24 06:15:10;;;;;;;14.97;14.47;;;14.50;99.90;;;;;;4894320;29;20900;-78
2023/03/24 06:17:41;;;;;;;15.27;14.67;;;14.50;99.90;;;;;;4898598;29;20874;-76
2023/03/24 06:20:14;;;;;;;15.30;14.73;;;14.50;1.00;;;;;;4897512;29;20471;-78
2023/03/24 06:22:44;;;;;;;15.00;14.50;;;14.40;1.00;;;;;;4894132;29;20465;-81
2023/03/24 06:25:16;;;;;;;15.17;14.67;;;14.40;1.00;;;;;;4891365;29;20483;-77
2023/03/24 06:27:45;;;;;;;14.50;14.10;;;14.40;1.00;;;;;;4891154;29;20491;-78
2023/03/24 06:30:16;;;;;;;15.13;14.73;;;14.30;1.00;;;;;;4889652;29;20447;-79
2023/03/24 06:32:45;;;;;;;15.40;14.80;;;14.40;1.00;;;;;;4889237;29;20461;-78
2023/03/24 06:35:14;;;;;;;14.87;14.43;;;14.40;1.00;;;;;;4892017;29;20461;-79
2023/03/24 06:37:43;;;;;;;15.67;15.17;;;14.30;99.90;;;;;;4890490;29;20468;-78
2023/03/24 06:40:16;;;;;;;15.70;15.10;;;14.20;99.90;;;;;;4891122;29;20485;-80
2023/03/24 06:42:45;;;;;;;15.50;14.80;;;14.20;1.00;;;;;;4896197;29;20979;-80
2023/03/24 06:45:13;;;;;;;15.57;15.07;;;14.20;1.00;;;;;;4894968;29;20899;-78
2023/03/24 06:47:41;;;;;;;15.63;15.13;;;14.20;99.90;;;;;;4892615;29;20489;-77
2023/03/24 06:50:10;;;;;;;16.03;15.50;;;14.20;99.90;;;;;;4895522;29;20466;-79
2023/03/24 06:52:38;;;;;;;16.20;15.60;;;14.10;21.90;;;;;;4893453;29;20471;-77
2023/03/24 06:55:08;;;;;;;15.43;14.93;;;14.00;1.00;;;;;;4901265;29;20552;-77
2023/03/24 06:57:37;;;;;;;15.80;15.17;;;14.00;99.90;;;;;;4900882;29;20468;-79
2023/03/24 07:00:09;;;;;;;16.33;15.73;;;14.00;99.90;;;;;;4904068;29;20464;-79
2023/03/24 07:02:37;;;;;;;15.80;15.30;;;14.00;30.50;;;;;;4899433;29;20460;-76
2023/03/24 07:05:07;;;;;;;16.27;15.77;;;14.00;99.90;;;;;;4898710;29;20464;-80
2023/03/24 07:07:36;;;;;;;16.70;16.10;;;14.00;99.90;;;;;;4901039;29;20559;-78
2023/03/24 07:10:07;;;;;;;16.93;16.33;;;13.90;18.00;;;;;;4901298;29;20517;-80
2023/03/24 07:12:37;;;;;;;17.08;16.48;;;14.00;99.90;;;;;;4901121;29;20456;-76
2023/03/24 07:15:07;;;;;;;16.97;16.27;;;14.00;1.00;;;;;;4898654;29;20213;-79
2023/03/24 07:17:35;;;;;;;16.80;16.20;;;14.00;99.90;;;;;;4900067;29;20540;-79
2023/03/24 07:20:07;;;;;;;17.67;16.97;;;14.00;99.90;;;;;;4894181;29;20982;-77
2023/03/24 07:22:36;;;;;;;17.30;16.70;;;13.90;1.00;;;;;;4891438;29;20472;-80
2023/03/24 07:25:05;;;;;;;17.23;16.53;;;13.80;99.90;;;;;;4894816;29;20456;-79
2023/03/24 07:27:36;;;;;;;17.13;16.60;;;13.70;99.90;;;;;;4893676;29;20502;-79
2023/03/24 07:30:09;;;;;;;17.90;17.30;;;13.80;99.90;;;;;;4895711;29;20547;-79
2023/03/24 07:32:38;;;;;;;17.03;16.43;;;13.80;99.90;;;;;;4892979;29;20546;-80
2023/03/24 07:35:09;;;;;;;17.40;16.70;;;13.80;99.90;;;;;;4896602;29;20468;-78
2023/03/24 07:37:38;;;;;;;17.23;16.53;;;13.80;99.90;;;;;;4894630;29;20452;-80
2023/03/24 07:40:10;;;;;;;18.43;17.60;;;13.80;99.90;;;;;;4888922;29;20490;-80
2023/03/24 07:42:40;;;;;;;17.97;17.27;;;13.70;99.90;;;;;;4886494;29;20894;-76
2023/03/24 07:45:12;;;;;;;17.10;16.60;;;13.70;99.90;;;;;;4891848;29;20490;-77
2023/03/24 07:47:44;;;;;;;17.87;17.27;;;13.80;99.90;;;;;;4899433;29;20556;-80
2023/03/24 07:50:14;;;;;;;17.47;16.80;;;13.70;99.90;;;;;;4895024;29;20459;-79
2023/03/24 07:52:47;;;;;;;18.70;18.00;;;13.80;99.90;;;;;;4902587;29;20459;-79
2023/03/24 07:55:15;;;;;;;18.77;17.83;;;13.70;1.00;;;;;;4902034;29;20896;-80
2023/03/24 07:57:47;;;;;;;17.67;16.97;;;13.70;1.00;;;;;;4899103;29;20546;-80
2023/03/24 08:00:18;;;;;;;17.50;16.90;;;13.60;1.00;;;;;;4901425;29;20602;-79
2023/03/24 08:02:49;;;;;;;18.20;17.60;;;13.70;1.00;;;;;;4900266;29;20454;-79
2023/03/24 08:05:18;;;;;;;17.23;16.63;;;13.70;1.00;;;;;;4901137;29;20483;-81
2023/03/24 08:07:52;;;;;;;18.00;17.30;;;13.70;1.00;;;;;;4900014;29;20481;-78
2023/03/24 08:10:22;;;;;;;18.00;17.40;;;13.70;1.00;;;;;;4887564;29;20736;-78
2023/03/24 08:12:50;;;;;;;16.93;16.43;;;13.70;1.00;;;;;;4885981;29;20556;-78
2023/03/24 08:15:21;;;;;;;18.07;17.37;;;13.80;1.00;;;;;;4894086;29;20471;-80
2023/03/24 08:17:50;;;;;;;17.50;16.80;;;13.80;1.00;;;;;;4896693;29;20488;-80
2023/03/24 08:20:20;;;;;;;18.30;17.37;;;13.70;1.00;;;;;;4887897;29;20461;-80
2023/03/24 08:22:49;;;;;;;17.07;16.57;;;13.70;1.00;;;;;;4885975;29;20475;-77
2023/03/24 08:25:19;;;;;;;18.43;17.70;;;13.70;1.00;;;;;;4886123;29;20985;-80
2023/03/24 08:27:48;;;;;;;17.70;17.10;;;13.70;1.00;;;;;;4886895;29;20491;-79
2023/03/24 08:30:18;;;;;;;18.20;17.40;;;13.80;1.00;;;;;;4888429;29;20469;-78
2023/03/24 08:32:51;;;;;;;17.80;17.07;;;13.80;1.00;;;;;;4884534;29;20474;-77
2023/03/24 08:35:21;;;;;;;18.30;17.60;;;13.70;1.00;;;;;;4884471;29;20488;-78
2023/03/24 08:37:50;;;;;;;18.10;17.40;;;13.70;1.00;;;;;;4892461;29;20463;-80
2023/03/24 08:40:22;;;;;;;17.97;17.17;;;13.60;1.00;;;;;;4887506;29;20467;-78
2023/03/24 08:42:53;;;;;;;18.50;17.60;;;13.60;1.00;;;;;;4885104;29;20454;-79
2023/03/24 08:45:23;;;;;;;17.57;16.87;;;13.60;1.00;;;;;;4887759;29;20482;-79
2023/03/24 08:47:54;;;;;;;18.50;17.70;;;13.70;1.00;;;;;;4888009;29;20555;-78
2023/03/24 08:50:26;;;;;;;18.00;17.20;;;13.60;1.00;;;;;;4887238;29;20470;-79
2023/03/24 08:52:56;;;;;;;17.90;17.20;;;13.60;1.00;;;;;;4887008;29;20815;-78
2023/03/24 08:55:25;;;;;;;17.47;16.90;;;13.60;1.00;;;;;;4887168;29;20890;-78
2023/03/24 08:57:53;;;;;;;17.80;17.20;;;13.70;1.00;;;;;;4893738;29;20528;-79
2023/03/24 09:00:22;;;;;;;18.37;17.57;;;13.70;1.00;;;;;;4902080;29;20838;-80
2023/03/24 09:02:55;;;;;;;17.20;16.70;;;13.70;1.00;;;;;;4899406;29;20465;-79
2023/03/24 09:05:25;;;;;;;18.07;17.37;;;13.80;1.00;;;;;;4899024;29;20487;-81
2023/03/24 09:08:11;;;;;;;17.93;17.33;;;13.80;1.00;;;;;;4900625;29;20500;-80
2023/03/24 09:10:40;;;;;;;18.90;18.20;;;13.70;1.00;;;;;;4900669;29;20509;-80
2023/03/24 09:13:09;;;;;;;18.00;17.30;;;13.70;1.00;;;;;;4899393;29;20502;-78
2023/03/24 09:15:37;;;;;;;18.20;17.50;;;13.70;1.00;;;;;;4898650;29;21523;-81
2023/03/24 09:18:08;;;;;;;18.40;17.70;;;13.80;1.00;;;;;;4895184;29;20452;-79
2023/03/24 09:20:37;;;;;;;18.03;17.43;;;13.70;1.00;;;;;;4884996;29;20464;-79
2023/03/24 09:23:05;;;;;;;18.63;17.83;;;13.80;1.00;;;;;;4879216;29;20476;-79
2023/03/24 09:25:33;;;;;;;18.67;17.97;;;13.80;1.00;;;;;;4889148;29;20543;-82
2023/03/24 09:28:02;;;;;;;17.93;17.13;;;13.90;1.00;;;;;;4891768;29;20497;-77
2023/03/24 09:30:30;;;;;;;17.93;17.33;;;13.90;99.90;;;;;;4886541;29;20465;-78
2023/03/24 09:33:02;;;;;;;18.27;17.57;;;14.00;1.00;;;;;;4890455;29;20483;-79
2023/03/24 09:35:31;;;;;;;18.20;17.50;;;14.20;99.90;;;;;;4885700;29;20517;-78
2023/03/24 09:38:00;;;;;;;18.30;17.70;;;14.40;99.90;;;;;;4886952;29;20465;-78
2023/03/24 09:40:30;;;;;;;18.80;18.00;;;14.60;99.90;;;;;;4887149;29;20468;-79
2023/03/24 09:43:04;;;;;;;18.40;17.80;;;14.60;1.00;;;;;;4885685;29;20488;-79
2023/03/24 09:45:36;;;;;;;18.77;18.07;;;14.60;99.90;;;;;;4888457;29;20498;-77
2023/03/24 09:48:09;;;;;;;18.50;17.80;;;14.40;99.90;;;;;;4896011;29;20863;-82
2023/03/24 09:50:48;;;;;;;18.40;17.80;;;14.60;99.90;;;;;;4901828;29;20523;-78
2023/03/24 09:53:28;;;;;;;18.30;17.70;;;14.60;1.00;;;;;;4904784;29;20465;-79
2023/03/24 09:55:58;;;;;;;18.67;17.97;;;14.90;99.90;;;;;;4901846;29;20490;-78
2023/03/24 09:58:29;;;;;;;18.00;17.50;;;15.20;1.00;;;;;;4904295;29;20458;-78
2023/03/24 10:00:57;;;;;;;18.90;18.20;;;15.40;99.90;;;;;;4904080;29;21205;-77
2023/03/24 10:03:26;;;;;;;19.10;18.50;;;15.50;1.00;;;;;;4902296;29;20526;-80
2023/03/24 10:06:00;;;;;;;19.30;18.60;;;15.70;99.90;;;;;;4901136;29;20942;-79
2023/03/24 10:08:35;;;;;;;19.20;18.50;;;15.60;1.00;;;;;;4890597;29;20597;-80
2023/03/24 10:11:07;;;;;;;18.57;17.87;;;15.70;51.40;;;;;;4888519;29;20465;-78
2023/03/24 10:13:49;;;;;;;18.17;17.57;;;15.60;99.90;;;;;;4891149;29;20538;-80
2023/03/24 10:16:26;;;;;;;18.50;18.00;;;15.70;99.90;;;;;;4892811;29;20508;-78
2023/03/24 10:19:02;;;;;;;18.20;17.60;;;15.60;99.90;;;;;;4891898;29;21063;-78
2023/03/24 10:21:35;;;;;;;18.07;17.47;;;15.80;1.00;;;;;;4892856;29;20507;-77
2023/03/24 10:24:11;;;;;;;18.30;17.60;;;15.60;1.00;;;;;;4889913;29;20553;-80
2023/03/24 10:26:45;;;;;;;18.37;17.67;;;15.70;99.90;;;;;;4889121;29;20474;-78
2023/03/24 10:29:27;;;;;;;17.53;17.03;;;15.90;99.90;;;;;;4898279;29;20596;-81
2023/03/24 10:32:00;;;;;;;17.70;17.00;;;16.20;99.90;;;;;;4888638;29;21120;-79
2023/03/24 10:34:34;;;;;;;17.27;16.80;;;16.10;20.40;;;;;;4891109;29;20466;-80
2023/03/24 10:37:05;;;;;;;17.10;16.60;;;16.00;99.90;;;;;;4890527;29;20590;-77
2023/03/24 10:39:34;;;;;;;17.30;16.80;;;15.90;99.90;;;;;;4884237;29;20617;-78
2023/03/24 10:42:17;;;;;;;17.07;16.47;;;16.00;99.90;;;;;;4894367;29;20499;-76
2023/03/24 10:44:47;;;;;;;17.20;16.80;;;16.10;18.80;;;;;;4891104;29;20468;-80
2023/03/24 10:47:19;;;;;;;17.00;16.60;;;16.10;94.50;;;;;;4889978;29;20618;-78
2023/03/24 10:49:55;;;;;;;17.47;16.77;;;16.10;58.10;;;;;;4891966;29;20497;-80
2023/03/24 10:52:25;;;;;;;16.90;16.47;;;16.00;92.50;;;;;;4890420;29;20456;-78
2023/03/24 10:54:58;;;;;;;17.17;16.67;;;16.00;9.40;;;;;;4900107;29;20510;-78
2023/03/24 10:57:27;;;;;;;16.80;16.30;;;15.90;51.60;;;;;;4903059;29;20490;-78
2023/03/24 10:59:59;;;;;;;16.30;15.90;;;15.60;1.00;;;;;;4896854;29;20479;-77
2023/03/24 11:02:30;;;;;;;16.80;16.30;;;15.60;52.00;;;;;;4899146;29;20457;-78
2023/03/24 11:05:01;;;;;;;17.10;16.40;;;15.70;13.40;;;;;;4898515;29;20481;-75
2023/03/24 11:07:35;;;;;;;16.60;16.20;;;15.80;7.60;;;;;;4901590;29;21188;-76
2023/03/24 11:10:07;;;;;;;16.30;15.90;;;16.10;2.80;;;;;;4898157;29;20485;-76
2023/03/24 11:12:38;;;;;;;16.40;16.00;;;16.30;1.00;;;;;;4900589;29;20487;-79
2023/03/24 11:15:18;;;;;;;16.93;16.53;;;16.20;1.00;;;;;;4900876;29;20543;-77
2023/03/24 11:17:55;;;;;;;17.20;16.70;;;16.30;1.00;;;;;;4897122;29;20931;-78
2023/03/24 11:20:28;;;;;;;16.07;15.67;;;16.30;1.00;;;;;;4887596;29;20454;-77
2023/03/24 11:23:03;;;;;;;16.30;15.80;;;16.20;1.00;;;;;;4890185;29;20988;-78
2023/03/24 11:25:33;;;;;;;16.30;15.87;;;16.30;1.00;;;;;;4885627;29;20496;-80
2023/03/24 11:28:07;;;;;;;17.10;16.60;;;16.30;1.00;;;;;;4892673;29;20465;-77
2023/03/24 11:30:45;;;;;;;16.43;15.93;;;16.40;1.00;;;;;;4886926;29;20473;-77
2023/03/24 11:33:21;;;;;;;16.30;15.90;;;16.50;1.00;;;;;;4883849;29;21111;-77
2023/03/24 11:36:12;;;;;;;15.67;15.00;;;16.60;1.00;;;;;;4890148;29;20493;-76
2023/03/24 11:38:41;;;;;;;16.07;15.57;;;16.40;1.00;;;;;;4886501;29;22526;-74
2023/03/24 11:41:21;;;;;;;15.37;14.90;;;16.30;1.00;;;;;;4888524;29;20477;-78
2023/03/24 11:43:49;;;;;;;15.60;15.20;;;16.20;1.00;;;;;;4886140;29;20475;-77
2023/03/24 11:46:21;;;;;;;15.03;14.63;;;16.00;1.00;;;;;;4886311;29;20480;-78
2023/03/24 11:48:53;;;;;;;15.13;14.80;;;16.10;1.00;;;;;;4896045;29;20493;-78
2023/03/24 11:51:26;;;;;;;15.00;14.60;;;16.00;1.00;;;;;;4900084;29;20475;-76
2023/03/24 11:53:58;;;;;;;14.33;14.03;;;15.90;1.00;;;;;;4898195;29;20458;-78
2023/03/24 11:56:33;;;;;;;13.73;13.43;;;15.70;99.90;;;;;;4891433;29;20488;-78
2023/03/24 11:59:07;;;;;;;14.03;13.73;;;15.70;99.90;;;;;;4899756;29;20457;-76
2023/03/24 12:01:39;;;;;;;13.83;13.53;;;15.60;99.90;;;;;;4897659;29;20455;-78
2023/03/24 12:04:28;;;;;;;13.50;13.20;;;15.60;99.90;;;;;;4901125;29;20973;-79
2023/03/24 12:07:23;;;;;;;13.97;13.67;;;15.70;99.90;;;;;;4895484;29;20490;-78
2023/03/24 12:09:58;;;;;;;13.70;13.40;;;15.80;99.90;;;;;;4895686;29;20594;-79
2023/03/24 12:12:35;;;;;;;13.80;13.50;;;15.70;99.90;;;;;;4899076;29;20470;-78
2023/03/24 12:15:20;;;;;;;13.60;13.30;;;15.80;99.90;;;;;;4888568;29;21315;-75
2023/03/24 12:18:12;;;;;;;14.20;13.80;;;15.90;99.90;;;;;;4888243;29;20473;-79
2023/03/24 12:20:48;;;;;;;13.80;13.50;;;15.90;99.90;;;;;;4886818;29;20479;-78
2023/03/24 12:23:22;;;;;;;14.23;13.83;;;16.00;99.90;;;;;;4882494;29;20570;-80
2023/03/24 12:26:13;;;;;;;13.60;13.30;;;16.00;99.90;;;;;;4886297;29;20489;-78
2023/03/24 12:28:52;;;;;;;13.60;13.30;;;16.00;99.90;;;;;;4886656;29;20539;-78
2023/03/24 12:31:46;;;;;;;13.40;13.13;;;15.90;99.90;;;;;;4886734;29;20463;-78
2023/03/24 12:34:44;;;;;;;13.20;12.90;;;16.00;99.90;;;;;;4883665;29;20476;-78
2023/03/24 12:37:22;;;;;;;12.90;12.60;;;15.70;99.90;;;;;;4887454;29;20488;-79
2023/03/24 12:39:59;;;;;;;12.77;12.47;;;15.60;99.90;;;;;;4887660;29;20461;-78
2023/03/24 12:42:36;;;;;;;13.60;13.30;;;15.70;99.90;;;;;;4886623;29;20484;-77
2023/03/24 12:45:15;;;;;;;13.47;13.07;;;15.70;99.90;;;;;;4885653;29;20465;-76
2023/03/24 12:48:02;;;;;;;13.00;12.80;;;15.60;99.90;;;;;;4883369;29;20609;-78
2023/03/24 12:50:41;;;;;;;13.27;13.00;;;15.70;99.90;;;;;;4894330;29;20490;-77
2023/03/24 12:53:21;;;;;;;13.30;13.00;;;15.60;99.90;;;;;;4893348;29;20450;-74
2023/03/24 12:55:54;;;;;;;13.93;13.53;;;15.70;99.90;;;;;;4899587;29;20503;-79
2023/03/24 12:58:29;;;;;;;13.80;13.50;;;15.70;99.90;;;;;;4899429;29;20464;-78
2023/03/24 13:01:03;;;;;;;13.97;13.20;;;15.70;99.90;;;;;;4896052;29;20484;-81
2023/03/24 13:03:40;;;;;;;13.20;13.00;;;15.70;99.90;;;;;;4899820;29;20458;-79